createdAt,value
2023-01-18T00:00:20.873Z,4.5
2023-01-18T00:01:20.814Z,4.5
2023-01-18T00:02:20.811Z,4.5
2023-01-18T00:03:20.807Z,4.4
2023-01-18T00:04:20.827Z,4.4
2023-01-18T00:05:20.807Z,4.4
2023-01-18T00:06:20.808Z,4.5
2023-01-18T00:08:20.815Z,4.4
2023-01-18T00:09:20.802Z,4.4
2023-01-18T00:10:20.825Z,4.4
2023-01-18T00:11:20.799Z,4.4
2023-01-18T00:12:20.800Z,4.4
2023-01-18T00:13:20.828Z,4.4
2023-01-18T00:14:20.815Z,4.4
2023-01-18T00:15:20.808Z,4.4
2023-01-18T00:16:20.897Z,4.4
2023-01-18T00:17:20.795Z,4.4
2023-01-18T00:18:20.864Z,4.4
2023-01-18T00:19:20.830Z,4.4
2023-01-18T00:20:20.805Z,4.4
2023-01-18T00:21:20.805Z,4.3
2023-01-18T00:22:20.807Z,4.3
2023-01-18T00:23:20.799Z,4.4
2023-01-18T00:24:20.791Z,4.3
2023-01-18T00:25:20.803Z,4.3
2023-01-18T00:26:20.799Z,4.4
2023-01-18T00:27:20.797Z,4.4
2023-01-18T00:28:20.798Z,4.4
2023-01-18T00:29:20.795Z,4.3
2023-01-18T00:30:20.817Z,4.3
2023-01-18T00:31:20.901Z,4.3
2023-01-18T00:32:20.983Z,4.3
2023-01-18T00:33:20.805Z,4.4
2023-01-18T00:34:20.802Z,4.4
2023-01-18T00:35:20.796Z,4.4
2023-01-18T00:36:20.793Z,4.4
2023-01-18T00:37:20.797Z,4.4
2023-01-18T00:38:20.833Z,4.4
2023-01-18T00:39:20.802Z,4.4
2023-01-18T00:40:20.888Z,4.4
2023-01-18T00:41:20.839Z,4.4
2023-01-18T00:42:20.799Z,4.4
2023-01-18T00:43:20.807Z,4.4
2023-01-18T00:44:20.799Z,4.4
2023-01-18T00:45:20.795Z,4.4
2023-01-18T00:46:20.796Z,4.3
2023-01-18T00:47:20.800Z,4.4
2023-01-18T00:48:20.786Z,4.3
2023-01-18T00:49:20.795Z,4.3
2023-01-18T00:50:20.830Z,4.3
2023-01-18T00:51:20.805Z,4.3
2023-01-18T00:52:20.790Z,4.3
2023-01-18T00:53:20.804Z,4.3
2023-01-18T00:54:20.893Z,4.3
2023-01-18T00:55:20.801Z,4.3
2023-01-18T00:56:20.788Z,4.3
2023-01-18T00:57:20.806Z,4.3
2023-01-18T00:58:20.786Z,4.3
2023-01-18T00:59:20.798Z,4.3
2023-01-18T01:00:20.823Z,4.3
2023-01-18T01:01:20.895Z,4.3
2023-01-18T01:02:20.831Z,4.3
2023-01-18T01:03:20.794Z,4.3
2023-01-18T01:04:20.800Z,4.3
2023-01-18T01:05:20.784Z,4.3
2023-01-18T01:06:20.811Z,4.3
2023-01-18T01:07:20.807Z,4.3
2023-01-18T01:08:20.784Z,4.3
2023-01-18T01:09:20.785Z,4.3
2023-01-18T01:10:20.789Z,4.3
2023-01-18T01:11:20.789Z,4.3
2023-01-18T01:12:20.779Z,4.3
2023-01-18T01:13:20.789Z,4.3
2023-01-18T01:14:20.783Z,4.3
2023-01-18T01:15:20.813Z,4.3
2023-01-18T01:16:20.844Z,4.3
2023-01-18T01:17:20.790Z,4.3
2023-01-18T01:18:20.788Z,4.3
2023-01-18T01:19:20.798Z,4.3
2023-01-18T01:20:20.790Z,4.3
2023-01-18T01:21:20.832Z,4.3
2023-01-18T01:22:20.783Z,4.3
2023-01-18T01:23:20.800Z,4.3
2023-01-18T01:24:20.781Z,4.3
2023-01-18T01:25:20.787Z,4.3
2023-01-18T01:26:20.786Z,4.3
2023-01-18T01:27:20.785Z,4.3
2023-01-18T01:28:20.800Z,4.3
2023-01-18T01:29:20.775Z,4.3
2023-01-18T01:30:20.797Z,4.3
2023-01-18T01:31:20.805Z,4.2
2023-01-18T01:32:20.785Z,4.2
2023-01-18T01:33:20.789Z,4.2
2023-01-18T01:34:20.795Z,4.2
2023-01-18T01:35:20.795Z,4.2
2023-01-18T01:36:20.787Z,4.2
2023-01-18T01:37:20.781Z,4.2
2023-01-18T01:38:20.782Z,4.3
2023-01-18T01:39:20.775Z,4.3
2023-01-18T01:40:20.776Z,4.3
2023-01-18T01:41:20.773Z,4.3
2023-01-18T01:42:20.805Z,4.3
2023-01-18T01:43:20.777Z,4.3
2023-01-18T01:44:20.805Z,4.2
2023-01-18T01:45:20.801Z,4.3
2023-01-18T01:46:20.793Z,4.3
2023-01-18T01:47:20.777Z,4.2
2023-01-18T01:48:20.784Z,4.3
2023-01-18T01:49:20.787Z,4.3
2023-01-18T01:50:20.793Z,4.3
2023-01-18T01:51:20.784Z,4.3
2023-01-18T01:52:20.801Z,4.3
2023-01-18T01:53:20.791Z,4.3
2023-01-18T01:54:20.780Z,4.3
2023-01-18T01:55:20.779Z,4.3
2023-01-18T01:56:20.781Z,4.3
2023-01-18T01:57:20.785Z,4.2
2023-01-18T01:58:20.782Z,4.2
2023-01-18T01:59:20.770Z,4.3
2023-01-18T02:00:20.786Z,4.3
2023-01-18T02:01:20.848Z,4.2
2023-01-18T02:02:20.821Z,4.2
2023-01-18T02:03:20.781Z,4.2
2023-01-18T02:04:20.782Z,4.2
2023-01-18T02:05:20.775Z,4.2
2023-01-18T02:06:20.786Z,4.2
2023-01-18T02:07:20.794Z,4.2
2023-01-18T02:08:20.779Z,4.2
2023-01-18T02:09:20.781Z,4.2
2023-01-18T02:10:20.782Z,4.2
2023-01-18T02:11:20.771Z,4.2
2023-01-18T02:12:20.775Z,4.2
2023-01-18T02:13:20.770Z,4.2
2023-01-18T02:14:20.771Z,4.3
2023-01-18T02:15:20.772Z,4.2
2023-01-18T02:16:20.854Z,4.2
2023-01-18T02:17:20.770Z,4.2
2023-01-18T02:18:20.775Z,4.2
2023-01-18T02:19:20.788Z,4.2
2023-01-18T02:20:20.799Z,4.2
2023-01-18T02:21:20.912Z,4.2
2023-01-18T02:22:20.801Z,4.2
2023-01-18T02:23:20.799Z,4.2
2023-01-18T02:24:20.782Z,4.2
2023-01-18T02:25:20.780Z,4.2
2023-01-18T02:26:20.770Z,4.2
2023-01-18T02:27:20.772Z,4.1
2023-01-18T02:28:20.768Z,4.1
2023-01-18T02:30:20.777Z,4.1
2023-01-18T02:31:20.787Z,4.1
2023-01-18T02:32:20.771Z,4.1
2023-01-18T02:33:20.763Z,4.1
2023-01-18T02:34:20.782Z,4.1
2023-01-18T02:35:20.767Z,4.1
2023-01-18T02:36:20.767Z,4.1
2023-01-18T02:37:20.802Z,4.1
2023-01-18T02:38:21.146Z,4.1
2023-01-18T02:39:20.799Z,4.1
2023-01-18T02:40:20.773Z,4.1
2023-01-18T02:41:20.786Z,4.1
2023-01-18T02:42:20.816Z,4.2
2023-01-18T02:43:20.787Z,4.2
2023-01-18T02:44:20.769Z,4.2
2023-01-18T02:45:20.768Z,4.2
2023-01-18T02:46:20.815Z,4.1
2023-01-18T02:47:20.765Z,4.1
2023-01-18T02:48:20.784Z,4.2
2023-01-18T02:49:20.771Z,4.1
2023-01-18T02:50:20.767Z,4.1
2023-01-18T02:51:20.771Z,4.1
2023-01-18T02:52:20.791Z,4.1
2023-01-18T02:53:20.775Z,4.1
2023-01-18T02:54:20.793Z,4.1
2023-01-18T02:55:20.780Z,4.1
2023-01-18T02:56:20.760Z,4.1
2023-01-18T02:57:20.774Z,4.1
2023-01-18T02:58:20.761Z,4.1
2023-01-18T02:59:20.782Z,4.1
2023-01-18T03:00:20.761Z,4.1
2023-01-18T03:01:20.841Z,4.1
2023-01-18T03:02:20.820Z,4.1
2023-01-18T03:03:20.769Z,4.1
2023-01-18T03:04:20.760Z,4.1
2023-01-18T03:05:20.786Z,4.1
2023-01-18T03:06:21.038Z,4.1
2023-01-18T03:07:20.755Z,4.1
2023-01-18T03:08:20.789Z,4.1
2023-01-18T03:09:20.766Z,4.1
2023-01-18T03:10:20.791Z,4.1
2023-01-18T03:11:20.772Z,4.1
2023-01-18T03:12:20.767Z,4.1
2023-01-18T03:13:20.807Z,4.1
2023-01-18T03:14:20.765Z,4.2
2023-01-18T03:15:20.769Z,4.1
2023-01-18T03:16:20.758Z,4.1
2023-01-18T03:17:20.773Z,4.1
2023-01-18T03:18:20.787Z,4.1
2023-01-18T03:19:20.863Z,4.1
2023-01-18T03:20:20.758Z,4.1
2023-01-18T03:21:20.761Z,4.1
2023-01-18T03:22:20.911Z,4.1
2023-01-18T03:23:20.945Z,4.1
2023-01-18T03:24:20.761Z,4.1
2023-01-18T03:25:20.788Z,4.1
2023-01-18T03:26:20.766Z,4.1
2023-01-18T03:27:20.758Z,4.1
2023-01-18T03:28:20.790Z,4.1
2023-01-18T03:29:20.763Z,4.1
2023-01-18T03:30:20.761Z,4.1
2023-01-18T03:31:20.874Z,4.1
2023-01-18T03:32:20.767Z,4.1
2023-01-18T03:33:20.788Z,4.1
2023-01-18T03:34:20.756Z,4.1
2023-01-18T03:35:20.759Z,4.1
2023-01-18T03:36:20.753Z,4.1
2023-01-18T03:37:20.755Z,4.1
2023-01-18T03:38:27.198Z,4.1
2023-01-18T03:39:20.761Z,4
2023-01-18T03:40:20.757Z,4
2023-01-18T03:41:20.753Z,4
2023-01-18T03:42:20.764Z,4.1
2023-01-18T03:43:20.757Z,4
2023-01-18T03:44:20.760Z,4.1
2023-01-18T03:45:20.784Z,4
2023-01-18T03:46:20.771Z,4.1
2023-01-18T03:47:21.021Z,4
2023-01-18T03:48:20.757Z,4
2023-01-18T03:49:20.749Z,4
2023-01-18T03:50:20.760Z,4
2023-01-18T03:51:20.749Z,4
2023-01-18T03:52:20.758Z,4
2023-01-18T03:53:20.747Z,4
2023-01-18T03:54:20.752Z,4
2023-01-18T03:55:20.758Z,4
2023-01-18T03:56:20.799Z,4
2023-01-18T03:57:20.772Z,4
2023-01-18T03:58:20.756Z,4
2023-01-18T03:59:20.756Z,4
2023-01-18T04:00:20.784Z,4
2023-01-18T04:01:20.900Z,4
2023-01-18T04:02:20.802Z,4
2023-01-18T04:03:20.759Z,4
2023-01-18T04:04:20.751Z,4
2023-01-18T04:05:20.755Z,4.1
2023-01-18T04:06:20.745Z,4.1
2023-01-18T04:07:20.745Z,4.1
2023-01-18T04:08:20.746Z,4.1
2023-01-18T04:09:20.742Z,4.1
2023-01-18T04:10:20.781Z,4.1
2023-01-18T04:11:20.745Z,4.1
2023-01-18T04:12:20.752Z,4.1
2023-01-18T04:13:20.769Z,4.1
2023-01-18T04:14:20.787Z,4.1
2023-01-18T04:15:20.815Z,4.1
2023-01-18T04:16:20.830Z,4
2023-01-18T04:17:20.742Z,4
2023-01-18T04:18:20.765Z,4
2023-01-18T04:19:20.746Z,4
2023-01-18T04:20:20.749Z,4
2023-01-18T04:21:20.758Z,4
2023-01-18T04:22:20.743Z,4
2023-01-18T04:23:20.746Z,4
2023-01-18T04:24:20.780Z,4
2023-01-18T04:25:20.745Z,4
2023-01-18T04:26:20.735Z,4
2023-01-18T04:27:22.354Z,4
2023-01-18T04:28:20.740Z,4
2023-01-18T04:29:20.748Z,4
2023-01-18T04:30:20.749Z,4
2023-01-18T04:31:20.852Z,4
2023-01-18T04:32:20.741Z,4
2023-01-18T04:33:20.751Z,4
2023-01-18T04:34:20.750Z,4
2023-01-18T04:35:20.758Z,4
2023-01-18T04:36:20.744Z,4
2023-01-18T04:37:20.758Z,4
2023-01-18T04:38:14.639Z,4
2023-01-18T04:39:20.776Z,4
2023-01-18T04:40:20.751Z,4
2023-01-18T04:41:20.756Z,4
2023-01-18T04:42:20.761Z,4
2023-01-18T04:43:20.757Z,4
2023-01-18T04:44:20.744Z,4
2023-01-18T04:45:20.767Z,4
2023-01-18T04:46:20.839Z,4
2023-01-18T04:47:20.736Z,4
2023-01-18T04:48:20.752Z,4
2023-01-18T04:49:20.745Z,4
2023-01-18T04:50:20.737Z,4
2023-01-18T04:51:20.747Z,4
2023-01-18T04:52:20.780Z,4
2023-01-18T04:53:20.748Z,4
2023-01-18T04:54:20.734Z,4
2023-01-18T04:55:20.757Z,4.1
2023-01-18T04:56:20.745Z,4.1
2023-01-18T04:57:20.738Z,4.1
2023-01-18T04:58:20.769Z,4.1
2023-01-18T04:59:20.755Z,4.1
2023-01-18T05:00:20.749Z,4.1
2023-01-18T05:01:20.936Z,4
2023-01-18T05:02:20.859Z,4
2023-01-18T05:03:20.743Z,4
2023-01-18T05:04:20.761Z,4
2023-01-18T05:05:20.729Z,4.1
2023-01-18T05:06:20.730Z,4
2023-01-18T05:07:20.743Z,4
2023-01-18T05:09:20.738Z,4
2023-01-18T05:10:20.749Z,4
2023-01-18T05:11:20.746Z,4
2023-01-18T05:12:20.736Z,4
2023-01-18T05:14:20.741Z,4.1
2023-01-18T05:15:20.764Z,4
2023-01-18T05:16:20.764Z,4.1
2023-01-18T05:17:20.731Z,4.1
2023-01-18T05:18:20.728Z,4.1
2023-01-18T05:19:20.738Z,4.1
2023-01-18T05:20:20.734Z,4.1
2023-01-18T05:21:20.735Z,4.1
2023-01-18T05:22:20.754Z,4.1
2023-01-18T05:23:20.727Z,4.1
2023-01-18T05:24:20.733Z,4.1
2023-01-18T05:25:20.740Z,4.1
2023-01-18T05:26:20.769Z,4.1
2023-01-18T05:27:20.734Z,4
2023-01-18T05:28:20.781Z,4
2023-01-18T05:29:20.761Z,4
2023-01-18T05:30:20.724Z,4
2023-01-18T05:31:20.735Z,4
2023-01-18T05:32:20.735Z,4
2023-01-18T05:33:20.743Z,4
2023-01-18T05:34:20.736Z,4
2023-01-18T05:35:20.766Z,4
2023-01-18T05:36:20.739Z,4
2023-01-18T05:37:20.732Z,4
2023-01-18T05:38:20.729Z,4
2023-01-18T05:39:20.731Z,4
2023-01-18T05:40:20.729Z,4
2023-01-18T05:41:20.740Z,4
2023-01-18T05:42:20.734Z,4
2023-01-18T05:43:20.727Z,4
2023-01-18T05:44:20.731Z,4
2023-01-18T05:45:20.724Z,4
2023-01-18T05:46:20.722Z,4
2023-01-18T05:47:20.738Z,4
2023-01-18T05:48:20.739Z,4
2023-01-18T05:49:20.740Z,4
2023-01-18T05:50:20.739Z,4
2023-01-18T05:51:20.742Z,4
2023-01-18T05:52:20.734Z,4
2023-01-18T05:53:20.727Z,4
2023-01-18T05:54:20.737Z,4
2023-01-18T05:55:20.727Z,4
2023-01-18T05:56:20.726Z,4
2023-01-18T05:57:20.744Z,4
2023-01-18T05:58:20.729Z,4
2023-01-18T05:59:20.740Z,4
2023-01-18T06:00:20.750Z,4
2023-01-18T06:01:20.774Z,4
2023-01-18T06:02:20.740Z,4
2023-01-18T06:03:20.729Z,4
2023-01-18T06:04:20.800Z,4
2023-01-18T06:05:20.748Z,4
2023-01-18T06:06:21.022Z,4
2023-01-18T06:08:20.726Z,4
2023-01-18T06:09:20.738Z,4
2023-01-18T06:10:20.730Z,4.1
2023-01-18T06:11:20.729Z,4.1
2023-01-18T06:12:20.725Z,4.1
2023-01-18T06:13:20.723Z,4.1
2023-01-18T06:14:20.739Z,4.1
2023-01-18T06:15:20.719Z,4
2023-01-18T06:16:20.775Z,4.1
2023-01-18T06:17:20.785Z,4.1
2023-01-18T06:18:20.739Z,4
2023-01-18T06:19:20.713Z,4
2023-01-18T06:20:20.717Z,4
2023-01-18T06:21:20.726Z,4.1
2023-01-18T06:22:20.720Z,4.1
2023-01-18T06:23:20.726Z,4.1
2023-01-18T06:24:20.726Z,4.1
2023-01-18T06:25:20.738Z,4.1
2023-01-18T06:26:20.719Z,4
2023-01-18T06:27:20.736Z,4
2023-01-18T06:28:20.734Z,4
2023-01-18T06:29:20.728Z,4
2023-01-18T06:30:20.722Z,4
2023-01-18T06:31:20.787Z,4
2023-01-18T06:32:20.729Z,4
2023-01-18T06:33:20.755Z,4
2023-01-18T06:34:20.722Z,4
2023-01-18T06:35:20.710Z,4
2023-01-18T06:36:20.723Z,4
2023-01-18T06:37:20.719Z,4
2023-01-18T06:38:20.790Z,4
2023-01-18T06:39:20.717Z,4
2023-01-18T06:40:20.710Z,4
2023-01-18T06:41:20.737Z,4.1
2023-01-18T06:42:20.743Z,4.1
2023-01-18T06:43:20.914Z,4.1
2023-01-18T06:44:20.718Z,4.1
2023-01-18T06:45:20.721Z,4.1
2023-01-18T06:46:20.795Z,4.1
2023-01-18T06:47:20.744Z,4.1
2023-01-18T06:48:20.718Z,4.1
2023-01-18T06:49:20.732Z,4.1
2023-01-18T06:50:20.707Z,4.1
2023-01-18T06:51:20.727Z,4.1
2023-01-18T06:52:20.709Z,4.1
2023-01-18T06:53:20.731Z,4.1
2023-01-18T06:54:20.729Z,4.1
2023-01-18T06:55:20.811Z,4.1
2023-01-18T06:56:20.719Z,4.1
2023-01-18T06:57:20.755Z,4.1
2023-01-18T06:58:20.727Z,4.1
2023-01-18T06:59:20.713Z,4.1
2023-01-18T07:00:20.721Z,4.1
2023-01-18T07:01:20.932Z,4.1
2023-01-18T07:02:20.751Z,4.1
2023-01-18T07:03:20.773Z,4.1
2023-01-18T07:04:20.814Z,4.1
2023-01-18T07:05:20.733Z,4.1
2023-01-18T07:06:20.722Z,4.1
2023-01-18T07:07:20.717Z,4.1
2023-01-18T07:08:20.716Z,4.1
2023-01-18T07:09:20.735Z,4.1
2023-01-18T07:10:20.718Z,4.1
2023-01-18T07:11:20.706Z,4.1
2023-01-18T07:12:20.721Z,4.1
2023-01-18T07:13:20.727Z,4
2023-01-18T07:14:20.707Z,4
2023-01-18T07:15:22.310Z,4.1
2023-01-18T07:16:20.754Z,4
2023-01-18T07:17:20.733Z,4.1
2023-01-18T07:18:20.718Z,4.1
2023-01-18T07:19:20.718Z,4.1
2023-01-18T07:21:20.713Z,4.1
2023-01-18T07:22:20.704Z,4.1
2023-01-18T07:23:20.715Z,4
2023-01-18T07:24:20.723Z,4
2023-01-18T07:25:20.887Z,4
2023-01-18T07:26:20.717Z,4
2023-01-18T07:27:20.727Z,4
2023-01-18T07:28:20.723Z,4
2023-01-18T07:29:20.737Z,4
2023-01-18T07:30:20.717Z,4
2023-01-18T07:31:20.718Z,4
2023-01-18T07:32:20.716Z,4
2023-01-18T07:33:20.745Z,4
2023-01-18T07:34:20.714Z,4
2023-01-18T07:35:20.726Z,4
2023-01-18T07:36:20.753Z,4
2023-01-18T07:37:20.744Z,4
2023-01-18T07:38:20.704Z,4
2023-01-18T07:39:20.737Z,4
2023-01-18T07:40:20.757Z,4
2023-01-18T07:41:20.711Z,4
2023-01-18T07:42:20.737Z,4
2023-01-18T07:43:20.716Z,4
2023-01-18T07:44:20.721Z,4
2023-01-18T07:45:20.704Z,4
2023-01-18T07:46:20.928Z,4
2023-01-18T07:47:20.699Z,4
2023-01-18T07:48:20.712Z,4
2023-01-18T07:49:20.708Z,4
2023-01-18T07:50:20.714Z,4
2023-01-18T07:51:20.702Z,4
2023-01-18T07:52:20.747Z,4
2023-01-18T07:53:20.708Z,4
2023-01-18T07:54:20.710Z,4
2023-01-18T07:55:20.705Z,4
2023-01-18T07:56:20.699Z,4
2023-01-18T07:57:20.700Z,4
2023-01-18T07:58:20.703Z,4
2023-01-18T07:59:20.703Z,4
2023-01-18T08:00:20.724Z,4
2023-01-18T08:01:20.854Z,4
2023-01-18T08:02:20.742Z,4
2023-01-18T08:03:20.706Z,4
2023-01-18T08:04:20.754Z,4
2023-01-18T08:05:20.702Z,4
2023-01-18T08:06:20.714Z,4
2023-01-18T08:07:20.711Z,4
2023-01-18T08:08:20.706Z,4
2023-01-18T08:09:20.720Z,4
2023-01-18T08:10:20.699Z,4
2023-01-18T08:11:20.698Z,4
2023-01-18T08:12:20.695Z,4
2023-01-18T08:13:20.723Z,4
2023-01-18T08:14:20.708Z,4
2023-01-18T08:15:20.701Z,4
2023-01-18T08:16:20.715Z,4
2023-01-18T08:17:20.704Z,4
2023-01-18T08:18:20.749Z,4
2023-01-18T08:19:20.710Z,4
2023-01-18T08:20:20.723Z,4
2023-01-18T08:21:20.707Z,4
2023-01-18T08:22:20.705Z,4
2023-01-18T08:23:20.696Z,4
2023-01-18T08:24:20.698Z,4.1
2023-01-18T08:25:20.698Z,4.1
2023-01-18T08:26:20.712Z,4.1
2023-01-18T08:27:20.699Z,4.1
2023-01-18T08:28:20.705Z,4.1
2023-01-18T08:29:20.692Z,4.1
2023-01-18T08:30:20.701Z,4.1
2023-01-18T08:31:20.937Z,4.1
2023-01-18T08:32:20.707Z,4.2
2023-01-18T08:33:20.691Z,4.2
2023-01-18T08:34:20.703Z,4.2
2023-01-18T08:35:23.579Z,4.2
2023-01-18T08:36:20.700Z,4.2
2023-01-18T08:37:20.801Z,4.2
2023-01-18T08:38:20.694Z,4.2
2023-01-18T08:39:20.691Z,4.2
2023-01-18T08:40:20.702Z,4.2
2023-01-18T08:41:20.713Z,4.2
2023-01-18T08:42:20.692Z,4.2
2023-01-18T08:43:20.685Z,4.2
2023-01-18T08:44:20.684Z,4.2
2023-01-18T08:45:20.696Z,4.2
2023-01-18T08:46:20.769Z,4.2
2023-01-18T08:47:20.683Z,4.2
2023-01-18T08:48:20.696Z,4.2
2023-01-18T08:49:20.697Z,4.2
2023-01-18T08:50:20.681Z,4.3
2023-01-18T08:51:20.694Z,4.3
2023-01-18T08:52:20.703Z,4.3
2023-01-18T08:53:20.688Z,4.3
2023-01-18T08:54:20.699Z,4.3
2023-01-18T08:55:20.693Z,4.3
2023-01-18T08:56:20.700Z,4.3
2023-01-18T08:57:20.694Z,4.3
2023-01-18T08:58:20.700Z,4.3
2023-01-18T08:59:20.720Z,4.3
2023-01-18T09:00:20.699Z,4.3
2023-01-18T09:01:20.816Z,4.3
2023-01-18T09:02:20.687Z,4.3
2023-01-18T09:03:20.695Z,4.3
2023-01-18T09:04:20.692Z,4.3
2023-01-18T09:05:20.698Z,4.3
2023-01-18T09:06:20.715Z,4.3
2023-01-18T09:07:20.693Z,4.3
2023-01-18T09:08:20.702Z,4.3
2023-01-18T09:09:20.691Z,4.3
2023-01-18T09:10:20.686Z,4.4
2023-01-18T09:11:20.698Z,4.4
2023-01-18T09:12:20.685Z,4.4
2023-01-18T09:13:20.698Z,4.3
2023-01-18T09:14:20.677Z,4.3
2023-01-18T09:15:20.715Z,4.4
2023-01-18T09:16:20.748Z,4.4
2023-01-18T09:17:20.683Z,4.4
2023-01-18T09:18:20.690Z,4.4
2023-01-18T09:19:20.686Z,4.4
2023-01-18T09:20:20.687Z,4.4
2023-01-18T09:21:20.693Z,4.4
2023-01-18T09:22:20.689Z,4.5
2023-01-18T09:23:20.702Z,4.5
2023-01-18T09:24:20.686Z,4.4
2023-01-18T09:25:20.727Z,4.5
2023-01-18T09:26:20.863Z,4.5
2023-01-18T09:27:20.683Z,4.5
2023-01-18T09:28:20.682Z,4.4
2023-01-18T09:29:20.856Z,4.4
2023-01-18T09:30:20.794Z,4.4
2023-01-18T09:31:20.752Z,4.4
2023-01-18T09:32:20.681Z,4.4
2023-01-18T09:33:20.688Z,4.5
2023-01-18T09:34:20.685Z,4.5
2023-01-18T09:35:20.687Z,4.4
2023-01-18T09:36:20.674Z,4.5
2023-01-18T09:37:20.714Z,4.5
2023-01-18T09:38:20.693Z,4.5
2023-01-18T09:39:20.708Z,4.5
2023-01-18T09:40:20.682Z,4.5
2023-01-18T09:41:20.710Z,4.5
2023-01-18T09:42:20.687Z,4.5
2023-01-18T09:43:20.703Z,4.5
2023-01-18T09:44:20.686Z,4.5
2023-01-18T09:45:20.683Z,4.5
2023-01-18T09:46:20.752Z,4.5
2023-01-18T09:47:20.688Z,4.5
2023-01-18T09:48:20.685Z,4.5
2023-01-18T09:49:20.715Z,4.5
2023-01-18T09:50:20.688Z,4.5
2023-01-18T09:51:20.761Z,4.6
2023-01-18T09:52:20.693Z,4.6
2023-01-18T09:53:20.678Z,4.6
2023-01-18T09:54:20.674Z,4.6
2023-01-18T09:55:20.688Z,4.6
2023-01-18T09:56:20.693Z,4.6
2023-01-18T09:57:20.689Z,4.6
2023-01-18T09:58:20.683Z,4.6
2023-01-18T09:59:20.685Z,4.6
2023-01-18T10:00:20.693Z,4.6
2023-01-18T10:01:20.847Z,4.6
2023-01-18T10:02:20.727Z,4.6
2023-01-18T10:03:20.675Z,4.6
2023-01-18T10:04:20.691Z,4.6
2023-01-18T10:05:20.682Z,4.6
2023-01-18T10:06:20.675Z,4.6
2023-01-18T10:07:20.737Z,4.7
2023-01-18T10:08:20.715Z,4.6
2023-01-18T10:09:20.697Z,4.7
2023-01-18T10:10:20.702Z,4.6
2023-01-18T10:11:20.676Z,4.7
2023-01-18T10:12:20.679Z,4.7
2023-01-18T10:13:20.677Z,4.7
2023-01-18T10:14:20.679Z,4.7
2023-01-18T10:15:20.676Z,4.7
2023-01-18T10:16:20.803Z,4.7
2023-01-18T10:17:20.816Z,4.7
2023-01-18T10:18:20.676Z,4.7
2023-01-18T10:19:20.681Z,4.7
2023-01-18T10:20:20.674Z,4.7
2023-01-18T10:21:20.674Z,4.7
2023-01-18T10:22:20.671Z,4.7
2023-01-18T10:23:20.678Z,4.7
2023-01-18T10:24:20.685Z,4.7
2023-01-18T10:26:20.665Z,4.7
2023-01-18T10:27:20.699Z,4.8
2023-01-18T10:28:20.684Z,4.8
2023-01-18T10:29:20.777Z,4.8
2023-01-18T10:30:20.676Z,4.8
2023-01-18T10:31:20.743Z,4.8
2023-01-18T10:32:20.671Z,4.8
2023-01-18T10:33:20.672Z,4.8
2023-01-18T10:34:20.726Z,4.8
2023-01-18T10:35:20.682Z,4.8
2023-01-18T10:36:20.675Z,4.9
2023-01-18T10:37:20.664Z,4.8
2023-01-18T10:38:20.695Z,4.8
2023-01-18T10:39:20.710Z,4.9
2023-01-18T10:40:20.693Z,4.9
2023-01-18T10:41:20.685Z,4.9
2023-01-18T10:42:20.669Z,4.9
2023-01-18T10:43:20.689Z,4.9
2023-01-18T10:44:20.694Z,5
2023-01-18T10:45:20.680Z,5
2023-01-18T10:46:20.704Z,4.9
2023-01-18T10:47:20.674Z,5
2023-01-18T10:48:20.681Z,5
2023-01-18T10:49:20.668Z,4.9
2023-01-18T10:50:20.663Z,4.9
2023-01-18T10:51:20.693Z,5
2023-01-18T10:52:20.669Z,4.9
2023-01-18T10:53:20.672Z,4.9
2023-01-18T10:54:20.678Z,4.9
2023-01-18T10:55:20.670Z,4.9
2023-01-18T10:56:20.746Z,4.9
2023-01-18T10:57:20.670Z,4.9
2023-01-18T10:58:20.667Z,4.9
2023-01-18T10:59:21.151Z,4.9
2023-01-18T11:00:20.674Z,4.9
2023-01-18T11:01:20.818Z,4.9
2023-01-18T11:02:20.752Z,4.9
2023-01-18T11:03:20.675Z,4.8
2023-01-18T11:04:20.668Z,4.9
2023-01-18T11:05:20.677Z,4.9
2023-01-18T11:06:20.765Z,4.9
2023-01-18T11:07:20.697Z,4.9
2023-01-18T11:08:20.750Z,4.8
2023-01-18T11:09:20.695Z,4.9
2023-01-18T11:10:20.804Z,4.9
2023-01-18T11:11:20.680Z,4.9
2023-01-18T11:12:20.814Z,4.9
2023-01-18T11:13:20.748Z,4.9
2023-01-18T11:14:20.713Z,4.9
2023-01-18T11:15:20.699Z,4.9
2023-01-18T11:16:20.762Z,4.9
2023-01-18T11:17:20.672Z,4.8
2023-01-18T11:18:20.667Z,4.8
2023-01-18T11:19:20.730Z,4.9
2023-01-18T11:20:20.775Z,4.9
2023-01-18T11:21:20.668Z,4.9
2023-01-18T11:22:20.686Z,4.9
2023-01-18T11:23:20.682Z,4.9
2023-01-18T11:24:20.684Z,4.9
2023-01-18T11:25:20.678Z,4.9
2023-01-18T11:26:20.707Z,4.9
2023-01-18T11:27:20.684Z,4.9
2023-01-18T11:28:20.696Z,4.9
2023-01-18T11:29:20.674Z,4.9
2023-01-18T11:30:20.714Z,4.9
2023-01-18T11:31:22.172Z,4.9
2023-01-18T11:32:20.691Z,4.9
2023-01-18T11:33:20.675Z,4.9
2023-01-18T11:34:20.670Z,4.9
2023-01-18T11:35:20.692Z,4.9
2023-01-18T11:36:20.807Z,4.9
2023-01-18T11:37:20.705Z,4.9
2023-01-18T11:38:20.700Z,4.9
2023-01-18T11:39:20.672Z,4.9
2023-01-18T11:40:20.723Z,4.9
2023-01-18T11:41:20.706Z,4.9
2023-01-18T11:42:20.680Z,4.9
2023-01-18T11:43:20.687Z,5
2023-01-18T11:44:20.662Z,4.9
2023-01-18T11:45:21.553Z,4.9
2023-01-18T11:46:20.808Z,4.9
2023-01-18T11:47:20.680Z,4.9
2023-01-18T11:48:20.696Z,4.9
2023-01-18T11:49:20.691Z,5
2023-01-18T11:50:22.550Z,4.9
2023-01-18T11:51:20.678Z,4.9
2023-01-18T11:52:20.660Z,4.9
2023-01-18T11:53:20.671Z,4.9
2023-01-18T11:54:20.692Z,4.9
2023-01-18T11:55:20.747Z,4.9
2023-01-18T11:56:20.667Z,4.9
2023-01-18T11:57:20.676Z,4.9
2023-01-18T11:58:20.703Z,4.9
2023-01-18T11:59:27.194Z,4.9
2023-01-18T12:00:20.663Z,4.9
2023-01-18T12:01:20.734Z,4.9
2023-01-18T12:02:20.717Z,4.9
2023-01-18T12:03:20.721Z,4.9
2023-01-18T12:04:20.679Z,4.9
2023-01-18T12:05:20.659Z,4.9
2023-01-18T12:06:20.667Z,4.9
2023-01-18T12:07:20.664Z,4.8
2023-01-18T12:08:20.665Z,4.8
2023-01-18T12:09:20.657Z,4.9
2023-01-18T12:10:20.664Z,4.9
2023-01-18T12:11:20.654Z,4.9
2023-01-18T12:12:20.678Z,4.9
2023-01-18T12:13:20.649Z,4.9
2023-01-18T12:14:20.663Z,4.9
2023-01-18T12:15:20.673Z,4.9
2023-01-18T12:16:20.719Z,4.9
2023-01-18T12:17:20.689Z,4.9
2023-01-18T12:18:20.700Z,4.9
2023-01-18T12:19:20.662Z,4.9
2023-01-18T12:20:20.675Z,4.9
2023-01-18T12:21:20.669Z,4.9
2023-01-18T12:22:20.664Z,4.9
2023-01-18T12:23:20.666Z,5
2023-01-18T12:24:20.664Z,4.9
2023-01-18T12:25:20.664Z,5
2023-01-18T12:26:20.649Z,4.9
2023-01-18T12:27:20.736Z,4.9
2023-01-18T12:28:20.660Z,4.9
2023-01-18T12:29:20.660Z,5
2023-01-18T12:30:20.749Z,4.9
2023-01-18T12:31:20.657Z,4.9
2023-01-18T12:32:20.664Z,5
2023-01-18T12:33:31.224Z,5
2023-01-18T12:34:20.657Z,5
2023-01-18T12:35:24.495Z,4.9
2023-01-18T12:36:20.668Z,4.9
2023-01-18T12:37:20.666Z,4.9
2023-01-18T12:38:20.653Z,4.9
2023-01-18T12:39:20.741Z,4.9
2023-01-18T12:40:20.682Z,4.8
2023-01-18T12:41:20.655Z,4.9
2023-01-18T12:42:20.672Z,4.8
2023-01-18T12:43:20.696Z,4.8
2023-01-18T12:44:20.652Z,4.8
2023-01-18T12:45:20.706Z,4.8
2023-01-18T12:46:20.726Z,4.8
2023-01-18T12:47:20.667Z,4.8
2023-01-18T12:48:20.657Z,4.9
2023-01-18T12:49:20.679Z,4.9
2023-01-18T12:50:23.040Z,4.9
2023-01-18T12:51:20.659Z,4.9
2023-01-18T12:52:20.658Z,4.9
2023-01-18T12:53:20.672Z,4.9
2023-01-18T12:54:20.655Z,4.8
2023-01-18T12:55:20.662Z,4.8
2023-01-18T12:56:20.663Z,4.9
2023-01-18T12:57:20.656Z,4.8
2023-01-18T12:58:20.668Z,4.8
2023-01-18T12:59:14.770Z,4.8
2023-01-18T13:00:20.670Z,4.8
2023-01-18T13:01:20.754Z,4.8
2023-01-18T13:02:20.734Z,4.8
2023-01-18T13:03:20.661Z,4.7
2023-01-18T13:04:20.656Z,4.8
2023-01-18T13:05:20.659Z,4.7
2023-01-18T13:06:20.655Z,4.7
2023-01-18T13:07:20.657Z,4.8
2023-01-18T13:08:20.661Z,4.7
2023-01-18T13:09:20.659Z,4.8
2023-01-18T13:10:20.661Z,4.7
2023-01-18T13:11:20.653Z,4.7
2023-01-18T13:12:20.654Z,4.7
2023-01-18T13:13:20.669Z,4.6
2023-01-18T13:14:20.681Z,4.7
2023-01-18T13:15:20.681Z,4.7
2023-01-18T13:16:20.661Z,4.7
2023-01-18T13:17:20.672Z,4.7
2023-01-18T13:18:20.648Z,4.7
2023-01-18T13:19:20.654Z,4.7
2023-01-18T13:20:20.674Z,4.7
2023-01-18T13:21:20.657Z,4.7
2023-01-18T13:22:20.655Z,4.6
2023-01-18T13:23:20.670Z,4.6
2023-01-18T13:24:20.657Z,4.6
2023-01-18T13:25:20.658Z,4.6
2023-01-18T13:26:20.668Z,4.5
2023-01-18T13:27:20.668Z,4.5
2023-01-18T13:28:20.672Z,4.5
2023-01-18T13:29:20.662Z,4.5
2023-01-18T13:30:20.670Z,4.5
2023-01-18T13:31:20.718Z,4.5
2023-01-18T13:32:20.645Z,4.5
2023-01-18T13:33:20.664Z,4.6
2023-01-18T13:34:20.651Z,4.6
2023-01-18T13:35:21.810Z,4.5
2023-01-18T13:36:21.564Z,4.5
2023-01-18T13:37:20.652Z,4.6
2023-01-18T13:38:25.387Z,4.5
2023-01-18T13:39:20.653Z,4.6
2023-01-18T13:40:20.658Z,4.6
2023-01-18T13:41:20.653Z,4.5
2023-01-18T13:42:20.655Z,4.5
2023-01-18T13:43:20.697Z,4.5
2023-01-18T13:44:20.652Z,4.5
2023-01-18T13:45:20.695Z,4.5
2023-01-18T13:46:20.820Z,4.5
2023-01-18T13:47:20.654Z,4.5
2023-01-18T13:48:20.660Z,4.6
2023-01-18T13:49:36.347Z,4.6
2023-01-18T13:50:20.657Z,4.6
2023-01-18T13:51:20.670Z,4.6
2023-01-18T13:52:20.673Z,4.6
2023-01-18T13:53:20.664Z,4.5
2023-01-18T13:54:20.717Z,4.4
2023-01-18T13:55:20.716Z,4.4
2023-01-18T13:56:20.772Z,4.5
2023-01-18T13:57:20.972Z,4.4
2023-01-18T13:58:20.882Z,4.4
2023-01-18T13:59:20.651Z,4.4
2023-01-18T14:00:20.654Z,4.4
2023-01-18T14:01:20.782Z,4.4
2023-01-18T14:02:20.658Z,4.4
2023-01-18T14:03:20.764Z,4.5
2023-01-18T14:04:20.651Z,4.4
2023-01-18T14:05:20.725Z,4.4
2023-01-18T14:06:20.646Z,4.4
2023-01-18T14:07:20.661Z,4.4